Time;durP1;ratioP1;P1;durP2;ratioP2;P2;SDS_P1;SDS_P2;PMS_P1;PMS_P2;Temp;Humidity;BMP_temperature;BMP_pressure;BME280_temperature;BME280_humidity;BME280_pressure;Samples;Min_cycle;Max_cycle;Signal;HPM_P1;HPM_P2
2021/01/31 00:01:53;;;;;;;7.55;3.15;;;24.10;36.60;;;;;;5074069;28;20029;-72
2021/01/31 00:04:19;;;;;;;10.73;3.42;;;24.10;36.50;;;;;;5073954;28;20455;-72
2021/01/31 00:06:45;;;;;;;9.00;2.88;;;24.10;36.50;;;;;;5073581;28;20043;-72
2021/01/31 00:09:11;;;;;;;10.32;3.33;;;24.10;36.50;;;;;;5055634;28;20028;-71
2021/01/31 00:11:37;;;;;;;12.38;4.20;;;24.10;36.40;;;;;;5055543;28;20035;-72
2021/01/31 00:14:03;;;;;;;9.10;3.28;;;24.10;36.40;;;;;;5073731;28;20028;-72
2021/01/31 00:16:29;;;;;;;10.43;3.20;;;24.00;36.20;;;;;;5073636;28;20112;-72
2021/01/31 00:18:55;;;;;;;8.75;3.88;;;24.00;36.10;;;;;;5055630;28;20128;-72
2021/01/31 00:21:21;;;;;;;8.32;2.95;;;24.00;36.00;;;;;;5073568;28;20032;-71
2021/01/31 00:23:47;;;;;;;7.97;3.40;;;24.00;36.00;;;;;;5073489;28;20021;-72
2021/01/31 00:26:13;;;;;;;7.90;2.55;;;24.00;35.90;;;;;;5055373;28;20051;-72
2021/01/31 00:28:39;;;;;;;9.00;3.30;;;24.00;36.00;;;;;;5073159;28;20052;-72
2021/01/31 00:31:05;;;;;;;8.35;2.45;;;24.00;35.90;;;;;;5055425;28;20457;-72
2021/01/31 00:33:31;;;;;;;8.50;2.80;;;24.00;35.90;;;;;;5073317;28;20024;-71
2021/01/31 00:35:58;;;;;;;6.53;2.40;;;24.00;35.80;;;;;;5073513;28;20058;-71
2021/01/31 00:38:25;;;;;;;7.65;2.67;;;23.90;35.80;;;;;;5071981;28;20028;-72
2021/01/31 00:40:52;;;;;;;8.90;3.17;;;23.90;35.80;;;;;;5055235;28;20060;-72
2021/01/31 00:43:18;;;;;;;9.52;2.72;;;23.90;35.70;;;;;;5054048;28;20056;-72
2021/01/31 00:45:44;;;;;;;7.22;2.40;;;23.90;35.70;;;;;;5038537;28;20066;-70
2021/01/31 00:48:12;;;;;;;6.72;2.20;;;23.90;35.70;;;;;;5055161;28;20829;-71
2021/01/31 00:50:39;;;;;;;7.88;2.90;;;23.90;35.70;;;;;;5072902;28;20852;-71
2021/01/31 00:53:14;;;;;;;6.53;2.35;;;23.90;35.70;;;;;;5039308;28;20025;-71
2021/01/31 00:55:44;;;;;;;9.77;2.30;;;23.80;35.70;;;;;;5054973;28;20024;-71
2021/01/31 00:58:10;;;;;;;9.77;3.05;;;23.80;35.70;;;;;;5071199;28;20031;-71
2021/01/31 01:00:39;;;;;;;7.65;3.00;;;23.80;35.70;;;;;;5038179;28;20028;-70
2021/01/31 01:03:10;;;;;;;10.20;2.70;;;23.80;35.70;;;;;;5054861;28;20036;-71
2021/01/31 01:06:03;;;;;;;9.52;3.17;;;23.80;35.70;;;;;;5056519;28;20459;-71
2021/01/31 01:08:29;;;;;;;8.07;2.60;;;23.80;35.70;;;;;;5054965;28;20727;-71
2021/01/31 01:10:55;;;;;;;6.47;2.03;;;23.80;35.80;;;;;;5054917;28;20029;-71
2021/01/31 01:13:21;;;;;;;6.25;2.33;;;23.80;35.80;;;;;;5038175;28;20060;-71
2021/01/31 01:15:47;;;;;;;5.95;1.98;;;23.80;35.90;;;;;;5072790;28;20519;-71
2021/01/31 01:18:13;;;;;;;8.70;3.22;;;23.80;35.90;;;;;;5072124;28;20020;-70
2021/01/31 01:20:39;;;;;;;6.40;2.22;;;23.70;35.80;;;;;;5054475;28;20032;-71
2021/01/31 01:23:05;;;;;;;7.50;2.38;;;23.80;35.90;;;;;;5037875;28;20025;-71
2021/01/31 01:25:31;;;;;;;10.48;2.45;;;23.70;35.80;;;;;;5054495;28;20046;-71
2021/01/31 01:27:57;;;;;;;5.47;2.15;;;23.70;35.90;;;;;;5054352;28;20079;-71
2021/01/31 01:30:26;;;;;;;6.75;2.58;;;23.70;35.90;;;;;;5037520;28;20066;-71
2021/01/31 01:32:54;;;;;;;9.55;2.72;;;23.70;36.00;;;;;;5054418;28;20119;-70
2021/01/31 01:35:21;;;;;;;6.70;2.38;;;23.70;36.00;;;;;;5071841;28;20028;-71
2021/01/31 01:37:48;;;;;;;8.23;2.42;;;23.70;36.10;;;;;;5071766;28;20051;-71
2021/01/31 01:40:21;;;;;;;10.43;3.03;;;23.70;36.10;;;;;;5071996;28;20029;-70
2021/01/31 01:42:47;;;;;;;8.13;2.53;;;23.60;36.10;;;;;;5072051;28;20032;-71
2021/01/31 01:45:14;;;;;;;9.13;2.78;;;23.60;36.20;;;;;;5072019;28;20051;-71
2021/01/31 01:47:40;;;;;;;8.63;2.13;;;23.60;36.30;;;;;;5053866;28;20386;-70
2021/01/31 01:50:22;;;;;;;10.27;2.60;;;23.60;36.30;;;;;;5071572;28;20032;-70
2021/01/31 01:52:50;;;;;;;10.55;3.13;;;23.60;36.40;;;;;;5037282;28;20188;-70
2021/01/31 01:55:18;;;;;;;6.90;2.65;;;23.60;36.50;;;;;;5053769;28;20446;-70
2021/01/31 01:57:56;;;;;;;9.27;2.85;;;23.60;36.60;;;;;;5053779;28;20162;-70
2021/01/31 02:00:22;;;;;;;7.68;2.40;;;23.60;36.70;;;;;;5071820;28;20474;-70
2021/01/31 02:02:54;;;;;;;7.57;2.55;;;23.60;36.70;;;;;;5059442;28;20093;-71
2021/01/31 02:05:20;;;;;;;8.35;2.40;;;23.60;36.80;;;;;;5071709;28;20120;-71
2021/01/31 02:07:47;;;;;;;8.68;2.58;;;23.60;36.80;;;;;;5070203;28;20029;-72
2021/01/31 02:10:15;;;;;;;9.93;2.83;;;23.60;36.80;;;;;;5069935;28;20040;-71
2021/01/31 02:12:42;;;;;;;7.82;2.67;;;23.50;36.90;;;;;;5070145;28;20036;-70
2021/01/31 02:15:12;;;;;;;11.32;2.70;;;23.50;36.90;;;;;;5071568;28;20025;-71
2021/01/31 02:18:12;;;;;;;9.63;2.58;;;23.50;37.00;;;;;;5071674;28;20021;-71
2021/01/31 02:21:05;;;;;;;11.38;2.55;;;23.50;37.10;;;;;;5069377;28;20089;-70
2021/01/31 02:23:49;;;;;;;8.40;3.25;;;23.50;37.10;;;;;;5070556;28;20029;-71
2021/01/31 02:26:55;;;;;;;8.50;2.80;;;23.50;37.10;;;;;;5071734;28;20533;-70
2021/01/31 02:29:33;;;;;;;6.10;2.30;;;23.50;37.10;;;;;;5070305;28;20039;-72
2021/01/31 02:32:54;;;;;;;7.82;2.50;;;23.50;37.10;;;;;;5070109;28;20374;-70
2021/01/31 02:35:24;;;;;;;;;;;23.40;37.00;;;;;;5041697;28;20102;-70
2021/01/31 02:38:01;;;;;;;6.93;2.22;;;23.40;37.00;;;;;;5070314;28;19915;-70
2021/01/31 02:40:56;;;;;;;8.82;2.47;;;23.40;37.00;;;;;;5071501;28;20115;-70
2021/01/31 02:43:39;;;;;;;6.18;2.30;;;23.40;37.00;;;;;;5066571;28;20045;-71
2021/01/31 02:46:17;;;;;;;9.23;2.95;;;23.40;37.10;;;;;;5071399;28;20112;-70
2021/01/31 02:48:50;;;;;;;8.00;2.83;;;23.40;37.10;;;;;;5069959;28;20486;-71
2021/01/31 02:51:42;;;;;;;9.60;3.00;;;23.30;37.10;;;;;;5078672;28;20040;-70
2021/01/31 02:54:19;;;;;;;10.20;3.05;;;23.30;37.10;;;;;;5091709;28;20028;-70
2021/01/31 02:57:05;;;;;;;9.48;2.70;;;23.30;37.10;;;;;;5091534;28;20024;-71
2021/01/31 02:59:38;;;;;;;6.20;2.50;;;23.30;37.00;;;;;;5091264;28;20025;-70
2021/01/31 03:02:15;;;;;;;8.23;3.00;;;23.30;37.10;;;;;;5091417;28;20028;-70
2021/01/31 03:05:18;;;;;;;11.70;2.97;;;23.30;37.10;;;;;;5091604;28;20725;-70
2021/01/31 03:07:56;;;;;;;8.82;3.33;;;23.20;37.10;;;;;;5095216;28;20020;-71
2021/01/31 03:10:48;;;;;;;12.32;3.17;;;23.30;37.10;;;;;;5095255;28;20072;-71
2021/01/31 03:13:40;;;;;;;6.65;2.38;;;23.20;37.00;;;;;;5095033;28;20032;-71
2021/01/31 03:16:14;;;;;;;8.30;2.85;;;23.20;37.00;;;;;;5061475;28;20024;-71
2021/01/31 03:18:46;;;;;;;9.48;2.72;;;23.20;37.00;;;;;;5060868;28;20740;-73
2021/01/31 03:21:17;;;;;;;6.97;2.42;;;23.20;37.10;;;;;;5094840;28;20028;-71
2021/01/31 03:23:49;;;;;;;10.93;3.80;;;23.20;37.10;;;;;;5094982;28;20031;-71
2021/01/31 03:26:34;;;;;;;10.85;3.22;;;23.20;37.10;;;;;;5094923;28;20043;-71
2021/01/31 03:29:00;;;;;;;8.32;2.70;;;23.10;37.10;;;;;;5094975;28;20028;-71
2021/01/31 03:31:29;;;;;;;10.27;3.15;;;23.20;37.10;;;;;;5076468;28;20031;-71
2021/01/31 03:34:03;;;;;;;9.30;3.47;;;23.10;37.10;;;;;;5059888;28;20126;-71
2021/01/31 03:36:30;;;;;;;9.30;2.78;;;23.10;37.10;;;;;;5094603;28;20024;-71
2021/01/31 03:38:57;;;;;;;7.38;2.88;;;23.10;37.20;;;;;;5094615;28;20052;-71
2021/01/31 03:41:27;;;;;;;8.32;3.42;;;23.10;37.20;;;;;;5094652;28;20032;-71
2021/01/31 03:43:54;;;;;;;10.00;3.33;;;23.10;37.20;;;;;;5094882;28;20064;-71
2021/01/31 03:46:49;;;;;;;6.72;2.42;;;23.10;37.20;;;;;;5094670;28;20034;-70
2021/01/31 03:49:46;;;;;;;8.05;2.38;;;23.10;37.30;;;;;;5076645;28;20032;-71
2021/01/31 03:52:12;;;;;;;11.55;3.20;;;23.10;37.30;;;;;;5066146;28;20141;-70
2021/01/31 03:54:38;;;;;;;7.65;2.25;;;23.10;37.20;;;;;;5094284;28;20125;-71
2021/01/31 03:57:19;;;;;;;7.63;2.58;;;23.10;37.20;;;;;;5094281;28;20028;-71
2021/01/31 04:00:03;;;;;;;7.10;2.65;;;23.10;37.20;;;;;;5076189;28;20122;-70
2021/01/31 04:03:00;;;;;;;8.93;3.05;;;23.10;37.30;;;;;;5094140;28;20122;-70
2021/01/31 04:05:29;;;;;;;11.90;3.03;;;23.10;37.20;;;;;;5094319;28;20181;-71
2021/01/31 04:07:58;;;;;;;10.13;2.90;;;23.10;37.30;;;;;;5076244;28;20035;-71
2021/01/31 04:10:25;;;;;;;8.32;3.30;;;23.10;37.20;;;;;;5094182;28;20039;-71
2021/01/31 04:12:54;;;;;;;9.70;3.08;;;23.10;37.20;;;;;;5093819;28;20109;-70
2021/01/31 04:15:42;;;;;;;7.90;2.65;;;23.10;37.20;;;;;;5093882;28;20028;-70
2021/01/31 04:18:09;;;;;;;8.93;2.50;;;23.00;37.10;;;;;;5093757;28;20028;-71
2021/01/31 04:20:36;;;;;;;9.68;2.88;;;23.10;37.20;;;;;;5093638;28;20027;-71
2021/01/31 04:23:02;;;;;;;9.40;2.80;;;23.10;37.20;;;;;;5093639;28;20052;-71
2021/01/31 04:25:29;;;;;;;6.70;2.83;;;23.10;37.20;;;;;;5093752;28;20516;-70
2021/01/31 04:27:55;;;;;;;8.60;2.75;;;23.00;37.20;;;;;;5093655;28;20031;-71
2021/01/31 04:30:22;;;;;;;10.18;3.45;;;23.00;37.10;;;;;;5093256;28;20043;-71
2021/01/31 04:32:49;;;;;;;10.38;3.05;;;23.00;37.10;;;;;;5093676;28;20368;-70
2021/01/31 04:35:16;;;;;;;8.15;2.80;;;23.00;37.10;;;;;;5058589;28;20165;-71
2021/01/31 04:37:44;;;;;;;10.77;3.47;;;23.00;37.10;;;;;;5075466;28;20090;-71
2021/01/31 04:40:13;;;;;;;13.73;3.13;;;23.00;37.10;;;;;;5093271;28;20111;-71
2021/01/31 04:42:40;;;;;;;12.10;3.65;;;23.00;37.10;;;;;;5075278;28;20115;-70
2021/01/31 04:45:10;;;;;;;11.82;3.15;;;23.00;37.20;;;;;;5093342;28;20036;-70
2021/01/31 04:48:11;;;;;;;9.23;3.15;;;23.00;37.20;;;;;;5093455;28;20071;-70
2021/01/31 04:51:02;;;;;;;9.38;2.65;;;23.00;37.20;;;;;;5088834;28;20071;-70
2021/01/31 04:53:49;;;;;;;11.93;3.50;;;23.00;37.10;;;;;;5093061;28;20056;-70
2021/01/31 04:56:20;;;;;;;9.70;2.60;;;23.00;37.10;;;;;;5075333;28;20031;-71
2021/01/31 04:58:48;;;;;;;12.30;2.92;;;23.00;37.10;;;;;;5075089;28;20032;-70
2021/01/31 05:01:30;;;;;;;9.85;3.22;;;23.00;37.00;;;;;;5093145;28;20040;-70
2021/01/31 05:04:03;;;;;;;9.77;3.45;;;23.00;37.00;;;;;;5058132;28;20066;-71
2021/01/31 05:06:51;;;;;;;7.50;2.88;;;23.00;37.00;;;;;;5058474;28;20039;-70
2021/01/31 05:09:20;;;;;;;9.20;3.35;;;22.90;37.00;;;;;;5092874;28;20783;-70
2021/01/31 05:12:39;;;;;;;10.27;3.97;;;23.00;37.00;;;;;;5080747;28;20041;-71
2021/01/31 05:15:20;;;;;;;11.07;3.42;;;23.00;37.00;;;;;;4990483;28;20042;-71
2021/01/31 05:17:49;;;;;;;10.55;3.45;;;23.00;37.00;;;;;;4974349;28;20037;-71
2021/01/31 05:20:21;;;;;;;9.63;2.95;;;23.00;36.90;;;;;;4990331;28;20055;-71
2021/01/31 05:22:51;;;;;;;10.63;3.13;;;23.00;36.90;;;;;;4973611;28;20065;-71
2021/01/31 05:25:20;;;;;;;12.68;3.60;;;22.90;36.80;;;;;;4974576;28;20030;-71
2021/01/31 05:27:49;;;;;;;11.77;2.97;;;22.90;36.90;;;;;;4958290;28;20479;-70
2021/01/31 05:30:16;;;;;;;10.23;3.40;;;22.90;36.90;;;;;;4974298;28;20145;-71
2021/01/31 05:33:08;;;;;;;11.70;3.05;;;23.00;36.90;;;;;;4974407;28;20054;-71
2021/01/31 05:35:39;;;;;;;10.30;3.08;;;22.90;36.90;;;;;;4974890;28;20101;-71
2021/01/31 05:38:05;;;;;;;8.63;2.97;;;22.90;37.00;;;;;;4990943;28;20030;-71
2021/01/31 05:40:41;;;;;;;8.32;2.45;;;22.90;36.90;;;;;;4974538;28;20118;-70
2021/01/31 05:43:16;;;;;;;9.88;3.38;;;22.90;37.00;;;;;;4990687;28;20558;-71
2021/01/31 05:45:44;;;;;;;10.45;3.38;;;22.90;37.00;;;;;;4990697;28;20130;-70
2021/01/31 05:48:22;;;;;;;15.52;7.20;;;22.90;37.00;;;;;;5012143;28;20115;-70
2021/01/31 05:50:49;;;;;;;39.85;33.33;;;22.90;37.10;;;;;;5053872;28;20041;-71
2021/01/31 05:53:32;;;;;;;101.07;89.93;;;22.90;37.10;;;;;;5037715;28;20037;-71
2021/01/31 05:56:25;;;;;;;131.13;116.55;;;22.80;37.20;;;;;;5053845;28;20028;-70
2021/01/31 05:59:08;;;;;;;118.32;105.53;;;22.90;37.30;;;;;;5071595;28;20058;-70
2021/01/31 06:01:53;;;;;;;121.50;108.10;;;22.90;37.30;;;;;;5070896;28;20035;-70
2021/01/31 06:04:21;;;;;;;113.10;100.85;;;22.80;37.20;;;;;;5051669;28;20474;-70
2021/01/31 06:06:48;;;;;;;111.03;99.10;;;22.80;37.30;;;;;;5034906;28;20475;-71
2021/01/31 06:09:43;;;;;;;102.15;91.25;;;22.90;37.40;;;;;;5071522;28;20037;-70
2021/01/31 06:12:21;;;;;;;97.93;86.53;;;22.80;37.40;;;;;;5053359;28;20453;-71
2021/01/31 06:15:29;;;;;;;84.82;74.75;;;22.80;37.40;;;;;;5071729;28;20540;-70
2021/01/31 06:18:00;;;;;;;83.95;74.93;;;22.80;37.50;;;;;;5071549;28;20466;-70
2021/01/31 06:20:32;;;;;;;78.45;68.68;;;22.80;37.50;;;;;;5053823;28;20490;-70
2021/01/31 06:22:59;;;;;;;74.13;64.78;;;22.80;37.70;;;;;;5053520;28;20072;-70
2021/01/31 06:25:28;;;;;;;74.03;64.18;;;22.90;37.80;;;;;;5052346;28;20490;-70
2021/01/31 06:28:14;;;;;;;67.50;59.65;;;22.80;37.80;;;;;;5070099;28;20025;-71
2021/01/31 06:31:10;;;;;;;64.20;56.80;;;22.80;37.80;;;;;;5035058;28;20036;-70
2021/01/31 06:33:39;;;;;;;63.88;57.20;;;22.80;37.90;;;;;;5063980;28;20029;-70
2021/01/31 06:36:31;;;;;;;65.60;54.05;;;22.90;38.00;;;;;;5053252;28;20139;-70
2021/01/31 06:39:13;;;;;;;58.85;51.38;;;22.80;38.10;;;;;;5070820;28;20029;-56
2021/01/31 06:42:14;;;;;;;54.38;46.67;;;22.80;38.00;;;;;;5056230;28;20089;-56
2021/01/31 06:44:52;;;;;;;53.50;47.75;;;22.80;38.10;;;;;;5058462;28;20386;-56
2021/01/31 06:47:39;;;;;;;54.60;46.88;;;22.80;38.20;;;;;;5058313;28;20427;-56
2021/01/31 06:50:17;;;;;;;50.60;45.00;;;22.80;38.20;;;;;;5076548;28;20040;-56
2021/01/31 06:53:02;;;;;;;46.60;41.22;;;22.80;38.20;;;;;;5076156;28;20409;-56
2021/01/31 06:56:05;;;;;;;47.30;41.75;;;22.90;38.30;;;;;;5075566;28;20103;-56
2021/01/31 06:58:58;;;;;;;42.88;38.03;;;22.90;38.40;;;;;;5075330;28;20044;-56
2021/01/31 07:01:33;;;;;;;41.75;35.65;;;22.80;38.40;;;;;;5057716;28;20116;-56
2021/01/31 07:04:11;;;;;;;41.63;35.35;;;22.80;38.40;;;;;;5055567;28;20082;-56
2021/01/31 07:07:34;;;;;;;41.15;32.67;;;22.90;38.50;;;;;;5064591;28;20067;-56
2021/01/31 07:10:33;;;;;;;34.53;30.70;;;22.80;38.40;;;;;;4974645;28;20039;-56
2021/01/31 07:13:32;;;;;;;38.45;31.95;;;22.90;38.50;;;;;;4985336;28;20041;-56
2021/01/31 07:16:19;;;;;;;32.83;28.20;;;22.90;38.60;;;;;;4983496;28;20046;-56
2021/01/31 07:19:14;;;;;;;27.45;23.85;;;22.90;38.60;;;;;;4966817;28;20385;-56
2021/01/31 07:21:59;;;;;;;28.63;21.60;;;22.80;38.50;;;;;;4993296;28;20528;-56
2021/01/31 07:24:28;;;;;;;27.88;20.02;;;22.90;38.60;;;;;;4977647;28;20048;-56
2021/01/31 07:27:08;;;;;;;25.20;20.80;;;22.80;38.50;;;;;;4994662;28;20057;-56
2021/01/31 07:30:19;;;;;;;26.27;21.50;;;22.80;38.60;;;;;;4978785;28;20385;-56
2021/01/31 07:33:16;;;;;;;23.85;19.33;;;22.80;38.60;;;;;;4915855;28;20041;-56
2021/01/31 07:36:05;;;;;;;25.77;18.00;;;22.80;38.60;;;;;;4974734;28;20048;-56
2021/01/31 07:39:03;;;;;;;22.92;17.77;;;22.80;38.60;;;;;;4985295;28;20123;-56
2021/01/31 07:41:31;;;;;;;31.35;18.70;;;22.80;38.60;;;;;;4996606;28;20060;-56
2021/01/31 07:44:08;;;;;;;28.40;18.60;;;22.80;38.70;;;;;;5073496;28;20028;-61
2021/01/31 07:46:35;;;;;;;39.05;31.17;;;22.80;38.80;;;;;;5043295;28;20025;-71
2021/01/31 07:49:03;;;;;;;45.40;37.25;;;22.80;38.80;;;;;;5032971;28;20028;-71
2021/01/31 07:51:37;;;;;;;46.00;39.10;;;22.80;38.80;;;;;;5073004;28;20040;-71
2021/01/31 07:54:21;;;;;;;46.78;35.60;;;22.80;38.90;;;;;;5071033;28;20025;-71
2021/01/31 07:56:51;;;;;;;36.22;30.10;;;22.80;38.90;;;;;;5072008;28;20405;-71
2021/01/31 07:59:20;;;;;;;39.35;31.27;;;22.80;38.90;;;;;;5056154;28;20459;-71
2021/01/31 08:01:53;;;;;;;35.42;27.10;;;22.80;38.90;;;;;;5074162;28;20379;-67
2021/01/31 08:04:47;;;;;;;50.55;42.92;;;22.90;39.00;;;;;;5074490;28;20032;-70
2021/01/31 08:07:52;;;;;;;47.30;39.63;;;22.80;39.00;;;;;;5070367;28;20033;-68
2021/01/31 08:10:40;;;;;;;43.83;36.90;;;22.80;38.90;;;;;;5073496;28;20074;-68
2021/01/31 08:13:10;;;;;;;37.67;32.00;;;22.80;38.90;;;;;;5071302;28;20024;-68
2021/01/31 08:15:40;;;;;;;37.55;30.98;;;22.90;39.20;;;;;;5073742;28;20047;-68
2021/01/31 08:18:08;;;;;;;32.60;26.58;;;22.90;39.30;;;;;;5073746;28;20077;-68
2021/01/31 08:20:40;;;;;;;35.72;24.52;;;22.90;39.20;;;;;;5073779;28;20119;-69
2021/01/31 08:23:30;;;;;;;30.42;22.45;;;22.90;39.40;;;;;;5070155;28;20052;-68
2021/01/31 08:25:59;;;;;;;20.65;17.65;;;22.90;39.40;;;;;;5038951;28;20148;-68
2021/01/31 08:28:30;;;;;;;24.45;18.55;;;22.90;39.40;;;;;;5073774;28;20056;-68
2021/01/31 08:31:05;;;;;;;22.75;16.45;;;22.90;39.40;;;;;;5025166;28;20558;-68
2021/01/31 08:33:36;;;;;;;23.65;16.25;;;22.90;39.40;;;;;;5070766;28;20021;-68
2021/01/31 08:36:31;;;;;;;27.95;14.68;;;23.00;39.60;;;;;;5072623;28;20478;-67
2021/01/31 08:38:59;;;;;;;21.65;11.57;;;22.90;39.50;;;;;;5042917;28;20024;-68
2021/01/31 08:41:25;;;;;;;20.45;12.25;;;23.00;39.60;;;;;;5054232;28;20052;-69
2021/01/31 08:43:54;;;;;;;16.08;10.38;;;23.00;39.60;;;;;;5046545;28;20060;-69
2021/01/31 08:46:30;;;;;;;16.60;9.97;;;23.00;39.70;;;;;;5055312;28;20037;-69
2021/01/31 08:49:02;;;;;;;15.60;9.07;;;23.00;39.80;;;;;;5055739;28;20032;-69
2021/01/31 08:51:32;;;;;;;15.35;9.35;;;23.10;39.80;;;;;;5051190;28;20115;-66
2021/01/31 08:54:04;;;;;;;11.15;8.18;;;23.10;39.80;;;;;;5052049;28;20025;-66
2021/01/31 08:56:40;;;;;;;18.23;8.65;;;23.10;39.90;;;;;;5058078;28;20111;-66
2021/01/31 08:59:20;;;;;;;17.17;7.68;;;23.10;39.90;;;;;;5072213;28;20040;-66
2021/01/31 09:02:09;;;;;;;13.27;7.63;;;23.10;39.90;;;;;;5071514;28;20039;-66
2021/01/31 09:04:38;;;;;;;13.43;6.13;;;23.10;39.90;;;;;;5070524;28;20488;-67
2021/01/31 09:07:05;;;;;;;9.77;5.35;;;23.20;39.80;;;;;;5073771;28;20025;-67
2021/01/31 09:09:35;;;;;;;14.07;8.63;;;23.20;39.80;;;;;;5073818;28;20025;-67
2021/01/31 09:12:12;;;;;;;15.93;11.00;;;23.20;39.80;;;;;;5074020;28;20121;-67
2021/01/31 09:14:40;;;;;;;77.97;66.78;;;23.30;39.90;;;;;;5056092;28;20046;-59
2021/01/31 09:17:10;;;;;;;38.75;34.45;;;23.30;39.90;;;;;;5055481;28;20029;-66
2021/01/31 09:19:37;;;;;;;43.17;29.42;;;23.30;39.90;;;;;;5055249;28;20051;-57
2021/01/31 09:22:22;;;;;;;34.85;25.60;;;23.30;40.00;;;;;;5073797;28;20443;-58
2021/01/31 09:24:59;;;;;;;25.90;19.85;;;23.30;40.20;;;;;;5073227;28;20068;-57
2021/01/31 09:27:26;;;;;;;19.05;13.90;;;23.30;40.50;;;;;;5073560;28;20025;-56
2021/01/31 09:30:08;;;;;;;16.27;12.68;;;23.40;40.50;;;;;;5055814;28;20381;-56
2021/01/31 09:32:41;;;;;;;15.20;10.77;;;23.40;40.60;;;;;;5073750;28;20031;-56
2021/01/31 09:35:09;;;;;;;13.93;8.52;;;23.40;40.70;;;;;;5055872;28;20060;-56
2021/01/31 09:37:36;;;;;;;12.13;7.05;;;23.50;40.60;;;;;;5073580;28;20172;-57
2021/01/31 09:40:05;;;;;;;11.90;8.32;;;23.50;40.50;;;;;;5073527;28;20025;-57
2021/01/31 09:42:35;;;;;;;8.60;5.20;;;23.60;40.60;;;;;;5073668;28;20035;-57
2021/01/31 09:45:08;;;;;;;10.63;5.40;;;23.60;40.50;;;;;;5073448;28;20021;-57
2021/01/31 09:47:35;;;;;;;5.90;3.90;;;23.60;40.50;;;;;;5073290;28;20029;-57
2021/01/31 09:50:08;;;;;;;7.07;3.75;;;23.70;40.40;;;;;;5054996;28;20036;-56
2021/01/31 09:52:40;;;;;;;5.57;3.58;;;23.70;40.50;;;;;;5054931;28;20554;-57
2021/01/31 09:55:26;;;;;;;8.77;3.42;;;23.80;40.40;;;;;;5073080;28;20040;-57
2021/01/31 09:57:52;;;;;;;14.10;10.48;;;23.80;40.40;;;;;;5073107;28;20030;-56
2021/01/31 10:00:29;;;;;;;17.17;14.40;;;23.90;40.30;;;;;;5054965;28;20468;-56
2021/01/31 10:03:11;;;;;;;19.48;14.23;;;23.90;40.30;;;;;;5054779;28;20035;-55
2021/01/31 10:05:37;;;;;;;21.35;17.60;;;23.90;40.30;;;;;;5072563;28;20028;-56
2021/01/31 10:08:12;;;;;;;47.17;42.17;;;24.00;40.20;;;;;;5072376;28;20066;-56
2021/01/31 10:10:43;;;;;;;27.98;24.45;;;24.00;40.20;;;;;;5072644;28;20037;-56
2021/01/31 10:13:37;;;;;;;15.43;11.60;;;24.10;40.10;;;;;;5071698;28;20504;-55
2021/01/31 10:16:20;;;;;;;13.50;9.35;;;24.10;40.20;;;;;;5072061;28;20021;-60
2021/01/31 10:18:46;;;;;;;6.60;4.65;;;24.20;40.30;;;;;;5071192;28;20020;-56
2021/01/31 10:21:21;;;;;;;9.57;4.50;;;24.20;40.20;;;;;;5072270;28;20060;-60
2021/01/31 10:23:49;;;;;;;9.60;3.45;;;24.20;40.30;;;;;;5071142;28;20037;-58
2021/01/31 10:26:21;;;;;;;6.97;3.92;;;24.30;40.20;;;;;;5057490;28;20039;-53
2021/01/31 10:28:53;;;;;;;22.52;14.80;;;24.30;40.20;;;;;;5071223;28;20042;-54
2021/01/31 10:31:44;;;;;;;15.15;10.90;;;24.30;40.20;;;;;;5072113;28;20568;-54
2021/01/31 10:34:11;;;;;;;11.48;6.88;;;24.30;40.20;;;;;;5059952;28;20127;-56
2021/01/31 10:36:48;;;;;;;9.40;5.10;;;24.40;40.10;;;;;;5070619;28;20020;-58
2021/01/31 10:39:14;;;;;;;40.95;31.98;;;24.40;40.10;;;;;;5050358;28;20022;-60
2021/01/31 10:41:42;;;;;;;32.30;27.52;;;24.40;40.00;;;;;;5071001;28;20028;-53
2021/01/31 10:44:18;;;;;;;16.75;12.93;;;24.50;40.00;;;;;;5054250;28;20029;-53
2021/01/31 10:46:44;;;;;;;30.65;21.55;;;24.50;40.00;;;;;;5049860;28;20039;-53
2021/01/31 10:49:10;;;;;;;24.65;17.55;;;24.60;40.20;;;;;;5034001;28;20100;-53
2021/01/31 10:51:37;;;;;;;16.10;10.57;;;24.60;40.10;;;;;;5046541;28;20080;-52
2021/01/31 10:54:05;;;;;;;11.45;7.55;;;24.60;40.10;;;;;;5071164;28;20028;-53
2021/01/31 10:56:31;;;;;;;8.73;3.78;;;24.70;40.00;;;;;;5072050;28;20028;-53
2021/01/31 10:58:57;;;;;;;24.00;19.63;;;24.70;39.90;;;;;;5071983;28;20060;-54
2021/01/31 11:01:23;;;;;;;19.13;15.07;;;24.70;39.80;;;;;;5071790;28;20726;-54
2021/01/31 11:03:50;;;;;;;44.70;39.80;;;24.80;39.80;;;;;;5053948;28;20486;-53
2021/01/31 11:06:20;;;;;;;35.38;28.45;;;24.80;40.00;;;;;;5071300;28;20521;-53
2021/01/31 11:08:46;;;;;;;25.15;21.60;;;24.90;40.00;;;;;;5068807;28;20089;-54
2021/01/31 11:11:12;;;;;;;20.20;16.50;;;24.90;39.90;;;;;;5072218;28;20437;-54
2021/01/31 11:13:38;;;;;;;15.15;9.65;;;25.00;39.80;;;;;;5071456;28;20063;-53
2021/01/31 11:16:04;;;;;;;10.10;5.28;;;25.10;40.00;;;;;;5071784;28;20052;-53
2021/01/31 11:18:30;;;;;;;4.72;2.88;;;25.10;39.90;;;;;;5071238;28;20029;-53
2021/01/31 11:20:56;;;;;;;6.68;2.60;;;25.30;39.80;;;;;;5071437;28;20041;-54
2021/01/31 11:23:23;;;;;;;7.72;2.45;;;25.40;39.70;;;;;;5071333;28;20043;-54
2021/01/31 11:25:49;;;;;;;9.30;2.67;;;25.60;39.70;;;;;;5071504;28;20036;-54
2021/01/31 11:28:17;;;;;;;5.95;3.40;;;25.70;39.60;;;;;;5074761;28;20020;-54
2021/01/31 11:30:46;;;;;;;7.22;4.15;;;25.90;39.40;;;;;;5075196;28;20033;-53
2021/01/31 11:33:13;;;;;;;6.85;3.90;;;26.10;39.30;;;;;;5056948;28;20107;-56
2021/01/31 11:35:39;;;;;;;10.07;3.30;;;26.30;39.10;;;;;;5051080;28;20089;-56
2021/01/31 11:38:06;;;;;;;6.82;2.90;;;26.40;38.60;;;;;;5073643;28;20029;-56
2021/01/31 11:40:32;;;;;;;9.25;2.58;;;26.60;38.30;;;;;;5074276;28;20495;-57
2021/01/31 11:42:58;;;;;;;5.93;1.77;;;26.80;38.00;;;;;;5056519;28;20406;-57
2021/01/31 11:45:28;;;;;;;5.45;2.70;;;26.90;37.70;;;;;;5073582;28;20112;-58
2021/01/31 11:47:54;;;;;;;13.37;6.90;;;27.10;37.20;;;;;;5074268;28;20386;-57
2021/01/31 11:50:21;;;;;;;8.52;3.58;;;27.20;37.20;;;;;;5074484;28;20040;-57
2021/01/31 11:52:47;;;;;;;7.05;3.53;;;27.30;36.90;;;;;;5074425;28;21667;-57
2021/01/31 11:55:14;;;;;;;6.00;2.90;;;27.40;36.80;;;;;;5053220;28;20060;-57
2021/01/31 11:57:40;;;;;;;6.30;2.63;;;27.40;36.60;;;;;;5054940;28;20025;-57
2021/01/31 12:00:09;;;;;;;14.10;9.25;;;27.50;36.50;;;;;;5073335;28;20024;-56
2021/01/31 12:02:39;;;;;;;25.45;18.55;;;27.60;36.40;;;;;;5072653;28;20074;-57
2021/01/31 12:05:09;;;;;;;29.25;18.35;;;27.70;36.50;;;;;;5074677;28;20099;-56
2021/01/31 12:07:35;;;;;;;;;;;27.70;36.30;;;;;;5073795;28;20032;-57
2021/01/31 12:10:01;;;;;;;13.35;8.45;;;27.80;37.00;;;;;;5057623;28;19909;-57
2021/01/31 12:12:27;;;;;;;10.73;6.38;;;27.90;36.10;;;;;;5056270;28;20436;-57
2021/01/31 12:14:53;;;;;;;15.90;7.35;;;27.90;36.10;;;;;;5056701;28;20036;-57
2021/01/31 12:17:19;;;;;;;9.85;4.35;;;27.90;36.00;;;;;;5073864;28;20127;-56
2021/01/31 12:19:45;;;;;;;10.20;3.20;;;27.90;35.90;;;;;;5074397;28;20032;-57
2021/01/31 12:22:11;;;;;;;9.23;3.47;;;27.90;35.90;;;;;;5074116;28;20039;-56
2021/01/31 12:24:37;;;;;;;13.82;2.95;;;27.90;35.90;;;;;;5074254;28;20033;-57
2021/01/31 12:27:03;;;;;;;10.88;2.72;;;27.90;35.70;;;;;;5052968;28;20117;-56
2021/01/31 12:29:29;;;;;;;7.10;3.15;;;27.90;35.90;;;;;;5068677;28;20082;-54
2021/01/31 12:31:55;;;;;;;9.70;6.45;;;27.80;35.80;;;;;;5055890;28;20025;-54
2021/01/31 12:34:21;;;;;;;14.25;11.18;;;27.80;35.60;;;;;;5073713;28;20024;-55
2021/01/31 12:36:52;;;;;;;8.45;5.45;;;27.80;35.40;;;;;;5053537;28;20024;-55
2021/01/31 12:39:18;;;;;;;5.90;4.00;;;27.70;34.90;;;;;;5071520;28;20201;-55
2021/01/31 12:41:44;;;;;;;8.25;4.60;;;27.70;35.00;;;;;;5055604;28;20056;-55
2021/01/31 12:44:14;;;;;;;5.82;3.38;;;27.60;35.40;;;;;;5055505;28;20029;-55
2021/01/31 12:46:42;;;;;;;7.03;2.57;;;27.60;35.40;;;;;;5073038;28;20107;-55
2021/01/31 12:49:10;;;;;;;6.25;2.58;;;27.60;35.30;;;;;;5067911;28;20109;-55
2021/01/31 12:51:39;;;;;;;5.40;2.35;;;27.70;35.10;;;;;;5047034;28;20443;-54
2021/01/31 12:54:08;;;;;;;8.38;3.42;;;27.70;34.80;;;;;;5048432;28;20024;-57
2021/01/31 12:56:34;;;;;;;10.93;5.28;;;27.70;34.70;;;;;;5053028;28;20074;-60
2021/01/31 12:59:02;;;;;;;11.82;7.20;;;27.70;34.90;;;;;;5053639;28;20032;-59
2021/01/31 13:01:30;;;;;;;9.48;6.82;;;27.60;34.80;;;;;;5049886;28;20025;-60
2021/01/31 13:03:56;;;;;;;11.80;6.70;;;27.60;35.00;;;;;;5049399;28;20032;-58
2021/01/31 13:06:22;;;;;;;9.25;6.15;;;27.60;35.10;;;;;;5050357;28;20075;-58
2021/01/31 13:08:48;;;;;;;10.93;5.28;;;27.50;35.10;;;;;;5051582;28;20450;-58
2021/01/31 13:11:15;;;;;;;7.45;5.47;;;27.50;35.50;;;;;;5053038;28;20037;-58
2021/01/31 13:13:41;;;;;;;8.65;4.97;;;27.50;35.60;;;;;;5051394;28;20029;-58